VTUWVTUD

Guest
Details From VTUW - Nakhon Phanom
To VTUD - Udon Thani
Flight Number -
Tags generated
Created
Modified
Stats Distance 108 nm / 200 km
Max Altitude 600 ft / 183 m
Waypoints 3
Social Downloads 0
Likes 0
Share VATSIM

Download

Looking for another format? Having issues loading an existing format? Contact us
Advertisement - Login to hide

Notes

Basic altitude profile: - Ascent Rate: 500ft/min - Ascent Speed: 80kts - Cruise Altitude: 8500ft - Cruise Speed: 110kts - Descent Rate: 1500ft/min - Descent Speed: 100kts

Route

VTUW UDN VTUD

ID Type Via Altitude Latitude Longitude Leg Dist Tot Dist Heading (true) Name
O VTUW APT - 0 ft / 0 m 17.38379˚ 104.64302˚ - 0 nm - Nakhon Phanom
UDN VOR - 600 ft / 183 m 17.38450˚ 102.77501˚ 107 nm 107 nm 270° / 270° UDON VOR-DME
O VTUD APT - 0 ft / 0 m 17.38644˚ 102.78825˚ 0 nm 107 nm 81° / 81° Udon Thani

Altitude Profile

Advertisement - Login to hide

VTUW

Details ICAO VTUW (KOP)
Name Nakhon Phanom
Region Thailand
Timezone Asia/Bangkok (UTC+7.0)
Stats Elevation 587 ft / 179 m (AMSL)
Location 17.383795° 104.643022°
Runways 1
Magnetic Variation 1.003° W

METAR

Not found

TAF

TAF VTUW 151100Z 1512/1612 12004KT 9999 SCT035 BECMG 1522/1524 06003KT 6000 FEW040 BECMG 1601/1603 08003KT CAVOK

Decode

Departure Runways

ID Width Length Bearing (true) Bearing (mag) Surface Threshold Offset Overrun Length
15 148 ft / 45 m 8,241 ft / 2,512 m 144.98° 145.98° Asphalt 0 ft / 0 m 197 ft / 60 m
33 148 ft / 45 m 8,241 ft / 2,512 m 324.99° 325.99° Asphalt 0 ft / 0 m 197 ft / 60 m

VTUD

Details ICAO VTUD (UTH)
Name Udon Thani
Region Thailand
Timezone Asia/Bangkok (UTC+7.0)
Stats Elevation 579 ft / 176 m (AMSL)
Location 17.386436° 102.788247°
Runways 1
Magnetic Variation 0.872° W

METAR

VTUD 151500Z 00000KT 7000 NSC 23/20 Q1015

Decode

TAF

TAF VTUD 151100Z 1512/1612 06003KT 9999 SCT035 BECMG 1522/1524 VRB02KT 7000 FEW040 BECMG 1601/1603 04003KT 9999 FEW035

Decode

Destination Runways

ID Width Length Bearing (true) Bearing (mag) Surface Threshold Offset Overrun Length
12 148 ft / 45 m 10,012 ft / 3,052 m 117.17° 118.04° Asphalt 0 ft / 0 m 1,001 ft / 305 m
30 148 ft / 45 m 10,012 ft / 3,052 m 297.17° 298.04° Asphalt 0 ft / 0 m 997 ft / 304 m

Approach Navaids

Runway Type Ident Frequency Range Bearing (true) Bearing (mag) Slope Elevation
30 Localiser IUDN 110.10 MHz 18 nm / 33 km 297.16° 298.03° - 579 ft / 176 m (AMSL)
30 Glidescope IUDN 110.10 MHz 10 nm / 19 km 297.17° 298.04° 3.00° 579 ft / 176 m (AMSL)
30 DME IUDN 110.10 MHz 18 nm / 33 km - - - 579 ft / 176 m (AMSL)

Popular Alternatives